createdAt,value
2019-04-25T00:02:46.538Z,5.72
2019-04-25T00:07:51.211Z,6.05
2019-04-25T00:12:54.713Z,6.72
2019-04-25T00:17:58.347Z,7.53
2019-04-25T00:23:11.760Z,8.33
2019-04-25T00:28:15.129Z,9.00
2019-04-25T00:33:18.579Z,8.90
2019-04-25T00:38:22.280Z,8.55
2019-04-25T00:43:25.559Z,10.30
2019-04-25T00:48:28.682Z,11.38
2019-04-25T00:53:32.472Z,10.72
2019-04-25T00:58:48.915Z,11.85
2019-04-25T01:03:53.630Z,11.93
2019-04-25T01:08:57.726Z,10.93
2019-04-25T01:14:02.132Z,10.90
2019-04-25T01:19:05.503Z,13.58
2019-04-25T01:24:09.786Z,10.20
2019-04-25T01:29:13.617Z,12.10
2019-04-25T01:34:19.696Z,13.85
2019-04-25T01:39:44.716Z,11.48
2019-04-25T01:44:49.553Z,11.15
2019-04-25T01:49:54.568Z,11.57
2019-04-25T01:54:58.895Z,11.93
2019-04-25T02:00:03.964Z,11.15
2019-04-25T02:05:09.407Z,11.53
2019-04-25T02:10:13.531Z,13.80
2019-04-25T02:15:18.859Z,11.65
2019-04-25T02:20:23.828Z,11.30
2019-04-25T02:25:27.207Z,12.30
2019-04-25T02:30:30.343Z,12.15
2019-04-25T02:35:34.941Z,11.65
2019-04-25T02:40:38.332Z,12.40
2019-04-25T02:46:10.383Z,12.93
2019-04-25T02:51:34.989Z,12.58
2019-04-25T02:56:39.162Z,12.85
2019-04-25T03:01:44.490Z,15.10
2019-04-25T03:06:47.667Z,15.55
2019-04-25T03:11:50.959Z,15.08
2019-04-25T03:16:54.424Z,15.68
2019-04-25T03:22:00.274Z,13.62
2019-04-25T03:27:05.193Z,13.53
2019-04-25T03:32:13.812Z,13.75
2019-04-25T03:37:14.661Z,14.68
2019-04-25T03:42:17.793Z,12.45
2019-04-25T03:47:20.902Z,11.80
2019-04-25T03:52:24.149Z,13.13
2019-04-25T03:57:27.423Z,14.47
2019-04-25T04:02:30.503Z,13.15
2019-04-25T04:07:33.885Z,13.30
2019-04-25T04:12:37.054Z,12.10
2019-04-25T04:17:48.010Z,12.50
2019-04-25T04:23:03.120Z,13.15
2019-04-25T04:28:06.342Z,13.48
2019-04-25T04:33:21.486Z,15.17
2019-04-25T04:38:15.510Z,11.73
2019-04-25T04:43:19.787Z,11.77
2019-04-25T04:48:23.267Z,12.90
2019-04-25T04:53:26.886Z,11.97
2019-04-25T04:58:30.159Z,11.20
2019-04-25T05:03:51.780Z,13.98
2019-04-25T05:09:08.585Z,12.43
2019-04-25T05:14:11.868Z,12.03
2019-04-25T05:19:15.845Z,12.58
2019-04-25T05:24:20.818Z,14.33
2019-04-25T05:29:26.496Z,13.20
2019-04-25T05:34:28.950Z,17.10
2019-04-25T05:39:33.471Z,14.95
2019-04-25T05:44:37.079Z,14.25
2019-04-25T05:49:40.214Z,16.02
2019-04-25T05:54:44.380Z,15.03
2019-04-25T05:59:47.596Z,12.10
2019-04-25T06:04:50.659Z,11.97
2019-04-25T06:10:16.080Z,11.45
2019-04-25T06:15:22.307Z,10.72
2019-04-25T06:20:30.573Z,10.72
2019-04-25T06:25:38.982Z,8.15
2019-04-25T06:30:39.044Z,6.78
2019-04-25T06:35:42.169Z,6.45
2019-04-25T06:40:46.003Z,6.15
2019-04-25T06:46:07.554Z,5.92
2019-04-25T06:51:11.042Z,6.35
2019-04-25T06:56:14.179Z,6.67
2019-04-25T07:01:17.241Z,5.75
2019-04-25T07:06:20.331Z,6.08
2019-04-25T07:11:25.046Z,5.58
2019-04-25T07:16:29.397Z,5.17
2019-04-25T07:21:34.336Z,5.22
2019-04-25T07:27:06.456Z,5.10
2019-04-25T07:32:44.042Z,4.15
2019-04-25T07:37:47.723Z,5.08
2019-04-25T07:42:50.862Z,4.28
2019-04-25T07:47:54.274Z,4.35
2019-04-25T07:52:57.848Z,4.20
2019-04-25T07:58:01.045Z,5.30
2019-04-25T08:03:05.344Z,4.00
2019-04-25T08:08:08.401Z,4.42
2019-04-25T08:13:13.295Z,3.20
2019-04-25T08:18:17.580Z,4.42
2019-04-25T08:23:23.815Z,4.10
2019-04-25T08:28:27.084Z,3.77
2019-04-25T08:33:30.258Z,3.52
2019-04-25T08:38:34.706Z,3.77
2019-04-25T08:43:39.404Z,4.27
2019-04-25T08:49:02.426Z,3.92
2019-04-25T08:54:32.506Z,3.12
2019-04-25T08:59:46.051Z,4.00
2019-04-25T09:05:04.859Z,3.62
2019-04-25T09:10:08.460Z,3.98
2019-04-25T09:15:14.078Z,3.17
2019-04-25T09:20:18.700Z,2.80
2019-04-25T09:25:23.597Z,3.25
2019-04-25T09:30:26.856Z,3.22
2019-04-25T09:35:30.017Z,3.62
2019-04-25T09:40:34.198Z,2.90
2019-04-25T09:45:46.222Z,3.75
2019-04-25T09:50:54.274Z,3.75
2019-04-25T09:56:05.519Z,2.62
2019-04-25T10:01:11.927Z,2.92
2019-04-25T10:06:18.496Z,3.58
2019-04-25T10:11:21.746Z,2.92
2019-04-25T10:16:25.045Z,2.65
2019-04-25T10:21:28.543Z,3.37
2019-04-25T10:26:33.530Z,3.52
2019-04-25T10:31:37.092Z,3.60
2019-04-25T10:36:42.120Z,3.35
2019-04-25T10:41:46.747Z,3.50
2019-04-25T10:46:50.437Z,3.45
2019-04-25T10:51:53.716Z,2.87
2019-04-25T10:56:57.230Z,2.72
2019-04-25T11:02:00.409Z,2.55
2019-04-25T11:07:03.870Z,3.33
2019-04-25T11:12:10.884Z,3.00
2019-04-25T11:17:15.485Z,2.50
2019-04-25T11:22:18.835Z,3.17
2019-04-25T11:27:23.984Z,2.40
2019-04-25T11:32:28.107Z,2.63
2019-04-25T11:37:31.991Z,2.90
2019-04-25T11:42:35.173Z,2.62
2019-04-25T11:47:38.532Z,2.50
2019-04-25T11:52:41.774Z,3.37
2019-04-25T11:57:48.737Z,2.52
2019-04-25T12:02:50.495Z,2.53
2019-04-25T12:07:53.568Z,2.67
2019-04-25T12:12:57.816Z,2.80
2019-04-25T12:18:01.122Z,2.53
2019-04-25T12:23:10.253Z,2.58
2019-04-25T12:28:09.555Z,2.10
2019-04-25T12:33:20.329Z,2.75
2019-04-25T12:38:20.305Z,2.20
2019-04-25T12:43:24.605Z,2.43
2019-04-25T12:48:27.830Z,2.75
2019-04-25T12:53:30.988Z,2.08
2019-04-25T12:58:34.077Z,2.90
2019-04-25T13:03:37.247Z,2.08
2019-04-25T13:08:40.476Z,2.77
2019-04-25T13:13:43.706Z,2.58
2019-04-25T13:18:46.892Z,2.62
2019-04-25T13:23:50.151Z,2.50
2019-04-25T13:29:23.173Z,2.90
2019-04-25T13:34:36.490Z,2.25
2019-04-25T13:39:36.995Z,3.05
2019-04-25T13:44:40.275Z,2.45
2019-04-25T13:49:43.558Z,3.67
2019-04-25T13:54:47.067Z,2.70
2019-04-25T13:59:50.397Z,3.17
2019-04-25T14:04:53.719Z,2.60
2019-04-25T14:09:56.906Z,2.85
2019-04-25T14:15:00.276Z,3.90
2019-04-25T14:20:19.075Z,2.85
2019-04-25T14:25:23.010Z,2.98
2019-04-25T14:30:29.943Z,2.42
2019-04-25T14:35:33.408Z,2.33
2019-04-25T14:40:36.458Z,2.67
2019-04-25T14:45:44.295Z,2.67
2019-04-25T14:50:44.981Z,2.33
2019-04-25T14:56:10.446Z,2.95
2019-04-25T15:01:15.971Z,2.80
2019-04-25T15:06:19.294Z,2.95
2019-04-25T15:11:23.222Z,2.40
2019-04-25T15:16:27.054Z,2.98
2019-04-25T15:21:30.384Z,2.92
2019-04-25T15:26:33.508Z,3.20
2019-04-25T15:31:36.843Z,2.73
2019-04-25T15:37:00.567Z,2.52
2019-04-25T15:42:32.182Z,2.85
2019-04-25T15:47:36.196Z,3.02
2019-04-25T15:52:39.453Z,2.92
2019-04-25T15:57:42.597Z,3.27
2019-04-25T16:02:45.737Z,3.45
2019-04-25T16:07:49.024Z,2.50
2019-04-25T16:12:52.083Z,2.58
2019-04-25T16:17:56.217Z,2.90
2019-04-25T16:23:00.044Z,2.33
2019-04-25T16:28:03.262Z,2.80
2019-04-25T16:33:07.629Z,3.13
2019-04-25T16:38:11.888Z,3.30
2019-04-25T16:43:19.421Z,3.90
2019-04-25T16:48:23.013Z,3.23
2019-04-25T16:53:26.173Z,3.30
2019-04-25T16:58:29.767Z,2.80
2019-04-25T17:03:35.379Z,2.83
2019-04-25T17:08:38.451Z,2.40
2019-04-25T17:13:51.188Z,3.17
2019-04-25T17:18:58.764Z,3.17
2019-04-25T17:24:02.415Z,2.87
2019-04-25T17:29:09.820Z,3.25
2019-04-25T17:34:36.591Z,3.17
2019-04-25T17:39:42.130Z,3.12
2019-04-25T17:44:45.563Z,3.07
2019-04-25T17:49:48.986Z,3.53
2019-04-25T17:54:52.045Z,3.80
2019-04-25T17:59:55.370Z,3.55
2019-04-25T18:04:58.483Z,3.52
2019-04-25T18:10:01.701Z,4.03
2019-04-25T18:15:07.508Z,4.35
2019-04-25T18:25:43.295Z,3.67
2019-04-25T18:30:47.702Z,3.77
2019-04-25T18:35:52.478Z,4.60
2019-04-25T18:41:07.268Z,3.80
2019-04-25T18:46:17.461Z,3.90
2019-04-25T18:51:20.681Z,4.05
2019-04-25T18:56:46.150Z,4.00
2019-04-25T19:02:07.753Z,3.87
2019-04-25T19:07:22.064Z,4.08
2019-04-25T19:12:16.135Z,5.08
2019-04-25T19:17:19.595Z,4.70
2019-04-25T19:22:23.277Z,4.03
2019-04-25T19:27:26.673Z,4.73
2019-04-25T19:32:29.869Z,4.92
2019-04-25T19:37:33.377Z,5.25
2019-04-25T19:42:41.124Z,4.47
2019-04-25T19:47:45.057Z,6.30
2019-04-25T19:52:48.318Z,4.42
2019-04-25T19:57:52.511Z,5.65
2019-04-25T20:03:05.603Z,5.65
2019-04-25T20:08:30.717Z,5.65
2019-04-25T20:13:33.903Z,5.30
2019-04-25T20:18:37.022Z,5.83
2019-04-25T20:23:40.113Z,6.78
2019-04-25T20:28:44.805Z,6.00
2019-04-25T20:34:00.245Z,6.10
2019-04-25T20:38:53.366Z,6.30
2019-04-25T20:43:57.057Z,6.00
2019-04-25T20:49:00.370Z,6.33
2019-04-25T20:54:03.541Z,6.03
2019-04-25T20:59:06.776Z,6.17
2019-04-25T21:04:29.656Z,6.15
2019-04-25T21:09:33.216Z,6.30
2019-04-25T21:15:11.020Z,6.45
2019-04-25T21:20:14.315Z,7.17
2019-04-25T21:25:17.381Z,7.62
2019-04-25T21:30:20.649Z,8.30
2019-04-25T21:35:24.226Z,7.37
2019-04-25T21:40:37.320Z,7.20
2019-04-25T21:45:41.050Z,10.20
2019-04-25T21:50:44.708Z,9.30
2019-04-25T21:55:47.899Z,8.50
2019-04-25T22:01:16.955Z,8.50
2019-04-25T22:06:20.402Z,8.45
2019-04-25T22:11:23.615Z,8.83
2019-04-25T22:16:27.517Z,10.13
2019-04-25T22:21:37.800Z,8.50
2019-04-25T22:26:36.229Z,8.00
2019-04-25T22:31:47.728Z,9.23
2019-04-25T22:36:51.117Z,6.65
2019-04-25T22:41:54.352Z,8.00
2019-04-25T22:46:58.015Z,7.80
2019-04-25T22:52:01.744Z,8.18
2019-04-25T22:57:06.387Z,8.45
2019-04-25T23:02:25.012Z,7.97
2019-04-25T23:07:29.286Z,7.66
2019-04-25T23:12:33.001Z,9.00
2019-04-25T23:17:36.215Z,7.65
2019-04-25T23:22:39.778Z,7.87
2019-04-25T23:28:03.637Z,8.33
2019-04-25T23:33:08.505Z,8.73
2019-04-25T23:38:13.763Z,7.53
2019-04-25T23:43:17.042Z,7.83
2019-04-25T23:48:20.713Z,7.96
2019-04-25T23:53:24.268Z,7.55
2019-04-25T23:58:27.459Z,8.40
